createdAt,value
2018-05-25T00:01:27.484Z,99.10
2018-05-25T00:03:55.007Z,99.20
2018-05-25T00:06:22.514Z,99.30
2018-05-25T00:08:51.533Z,98.90
2018-05-25T00:11:19.472Z,99.10
2018-05-25T00:13:48.315Z,99.80
2018-05-25T00:16:16.092Z,99.90
2018-05-25T00:18:43.601Z,99.70
2018-05-25T00:21:11.125Z,99.90
2018-05-25T00:23:38.625Z,99.70
2018-05-25T00:26:06.125Z,99.80
2018-05-25T00:28:33.652Z,99.10
2018-05-25T00:31:01.159Z,99.20
2018-05-25T00:33:29.154Z,99.70
2018-05-25T00:35:56.650Z,99.80
2018-05-25T00:38:24.148Z,99.70
2018-05-25T00:40:51.663Z,99.40
2018-05-25T00:43:19.624Z,99.60
2018-05-25T00:45:47.346Z,99.20
2018-05-25T00:48:14.844Z,99.00
2018-05-25T00:50:42.348Z,99.40
2018-05-25T00:53:09.869Z,98.90
2018-05-25T00:55:39.051Z,98.30
2018-05-25T00:58:06.590Z,98.50
2018-05-25T01:00:34.089Z,98.70
2018-05-25T01:03:01.592Z,98.40
2018-05-25T01:05:29.236Z,98.60
2018-05-25T01:07:56.733Z,99.40
2018-05-25T01:10:24.257Z,99.60
2018-05-25T01:12:51.753Z,99.80
2018-05-25T01:15:19.252Z,99.90
2018-05-25T01:17:46.771Z,99.20
2018-05-25T01:20:15.060Z,98.60
2018-05-25T01:22:42.588Z,98.70
2018-05-25T01:25:11.388Z,98.70
2018-05-25T01:27:38.892Z,98.90
2018-05-25T01:30:06.420Z,99.50
2018-05-25T01:32:33.962Z,99.70
2018-05-25T01:35:01.496Z,99.60
2018-05-25T01:37:29.198Z,99.20
2018-05-25T01:39:56.701Z,99.40
2018-05-25T01:42:25.584Z,99.70
2018-05-25T01:44:53.953Z,99.10
2018-05-25T01:47:21.468Z,99.00
2018-05-25T01:49:49.407Z,99.70
2018-05-25T01:52:16.906Z,99.80
2018-05-25T01:54:45.235Z,99.90
2018-05-25T01:57:12.731Z,99.90
2018-05-25T01:59:40.571Z,99.90
2018-05-25T02:02:08.069Z,99.90
2018-05-25T02:04:35.956Z,99.90
2018-05-25T02:07:03.493Z,99.90
2018-05-25T02:09:30.991Z,99.90
2018-05-25T02:11:58.507Z,99.90
2018-05-25T02:14:26.007Z,99.90
2018-05-25T02:16:54.240Z,99.80
2018-05-25T02:19:21.764Z,99.30
2018-05-25T02:21:50.049Z,99.00
2018-05-25T02:24:17.571Z,98.70
2018-05-25T02:26:45.101Z,98.80
2018-05-25T02:29:12.587Z,98.80
2018-05-25T02:31:40.110Z,99.70
2018-05-25T02:34:07.603Z,99.90
2018-05-25T02:36:35.120Z,99.90
2018-05-25T02:39:02.643Z,99.90
2018-05-25T02:41:30.147Z,99.90
2018-05-25T02:43:57.688Z,99.90
2018-05-25T02:46:25.188Z,99.90
2018-05-25T02:48:52.883Z,99.90
2018-05-25T02:51:20.379Z,99.90
2018-05-25T02:53:47.885Z,99.90
2018-05-25T02:56:15.408Z,99.90
2018-05-25T02:58:42.904Z,99.90
2018-05-25T03:01:10.432Z,99.90
2018-05-25T03:03:37.995Z,99.90
2018-05-25T03:06:06.255Z,99.90
2018-05-25T03:08:33.784Z,99.90
2018-05-25T03:11:01.316Z,99.90
2018-05-25T03:13:28.835Z,99.90
2018-05-25T03:15:56.340Z,99.90
2018-05-25T03:18:23.864Z,99.70
2018-05-25T03:20:52.099Z,99.30
2018-05-25T03:23:19.596Z,99.10
2018-05-25T03:25:47.121Z,99.70
2018-05-25T03:28:14.614Z,99.90
2018-05-25T03:30:42.572Z,98.90
2018-05-25T03:33:11.164Z,98.50
2018-05-25T03:35:38.667Z,98.60
2018-05-25T03:38:06.193Z,98.90
2018-05-25T03:40:33.687Z,99.40
2018-05-25T03:43:01.183Z,99.70
2018-05-25T03:45:29.166Z,99.90
2018-05-25T03:47:56.667Z,99.20
2018-05-25T03:50:24.187Z,99.00
2018-05-25T03:52:52.123Z,99.00
2018-05-25T03:55:20.064Z,99.80
2018-05-25T03:57:47.577Z,99.60
2018-05-25T04:00:26.749Z,99.30
2018-05-25T04:02:54.267Z,99.60
2018-05-25T04:05:21.774Z,98.40
2018-05-25T04:07:49.300Z,98.20
2018-05-25T04:10:16.800Z,98.00
2018-05-25T04:12:44.304Z,98.20
2018-05-25T04:15:11.828Z,97.50
2018-05-25T04:17:39.336Z,97.70
2018-05-25T04:20:06.860Z,98.20
2018-05-25T04:22:34.804Z,98.60
2018-05-25T04:25:02.749Z,98.70
2018-05-25T04:27:30.273Z,98.30
2018-05-25T04:29:57.777Z,98.00
2018-05-25T04:32:25.865Z,97.70
2018-05-25T04:34:53.364Z,97.70
2018-05-25T04:37:20.864Z,98.10
2018-05-25T04:39:48.407Z,98.10
2018-05-25T04:42:15.910Z,98.70
2018-05-25T04:44:44.252Z,98.90
2018-05-25T04:47:11.748Z,99.40
2018-05-25T04:49:39.244Z,99.40
2018-05-25T04:52:06.770Z,99.50
2018-05-25T04:54:35.176Z,99.50
2018-05-25T04:57:02.707Z,99.00
2018-05-25T04:59:30.540Z,98.80
2018-05-25T05:01:58.040Z,98.70
2018-05-25T05:04:25.568Z,98.50
2018-05-25T05:06:53.062Z,98.40
2018-05-25T05:09:20.599Z,98.10
2018-05-25T05:11:48.097Z,98.20
2018-05-25T05:14:15.592Z,97.80
2018-05-25T05:16:43.125Z,98.20
2018-05-25T05:19:10.620Z,98.10
2018-05-25T05:21:38.144Z,97.90
2018-05-25T05:24:06.076Z,97.80
2018-05-25T05:26:33.575Z,98.00
2018-05-25T05:29:01.096Z,97.10
2018-05-25T05:31:28.860Z,97.00
2018-05-25T05:33:56.383Z,96.60
2018-05-25T05:36:23.889Z,96.30
2018-05-25T05:38:51.398Z,96.40
2018-05-25T05:41:18.921Z,96.70
2018-05-25T05:43:46.411Z,96.90
2018-05-25T05:46:15.189Z,97.00
2018-05-25T05:48:42.683Z,96.70
2018-05-25T05:51:10.195Z,96.80
2018-05-25T05:53:37.699Z,96.60
2018-05-25T05:56:05.948Z,96.80
2018-05-25T05:58:35.968Z,96.30
2018-05-25T06:01:03.476Z,96.40
2018-05-25T06:03:31.032Z,96.60
2018-05-25T06:05:58.515Z,96.00
2018-05-25T06:08:26.013Z,95.70
2018-05-25T06:10:53.533Z,95.90
2018-05-25T06:13:21.030Z,95.60
2018-05-25T06:15:48.551Z,95.20
2018-05-25T06:18:16.047Z,95.30
2018-05-25T06:20:43.545Z,95.00
2018-05-25T06:23:11.063Z,95.10
2018-05-25T06:25:38.566Z,95.40
2018-05-25T06:28:06.069Z,95.10
2018-05-25T06:30:33.587Z,94.80
2018-05-25T06:33:01.086Z,95.40
2018-05-25T06:35:28.612Z,94.70
2018-05-25T06:37:56.121Z,94.80
2018-05-25T06:40:23.635Z,94.70
2018-05-25T06:42:51.153Z,94.20
2018-05-25T06:45:18.668Z,94.60
2018-05-25T06:47:46.164Z,94.70
2018-05-25T06:50:13.686Z,94.70
2018-05-25T06:52:41.751Z,93.80
2018-05-25T06:55:09.272Z,93.40
2018-05-25T06:57:36.769Z,93.00
2018-05-25T07:00:04.263Z,93.00
2018-05-25T07:02:31.781Z,92.50
2018-05-25T07:04:59.276Z,93.20
2018-05-25T07:07:26.804Z,92.70
2018-05-25T07:09:54.300Z,92.30
2018-05-25T07:12:21.790Z,92.50
2018-05-25T07:14:49.311Z,91.90
2018-05-25T07:17:19.715Z,91.80
2018-05-25T07:19:47.268Z,91.60
2018-05-25T07:22:14.781Z,91.60
2018-05-25T07:24:42.882Z,90.90
2018-05-25T07:27:10.377Z,91.40
2018-05-25T07:29:37.883Z,91.20
2018-05-25T07:32:05.781Z,91.40
2018-05-25T07:34:33.409Z,91.10
2018-05-25T07:37:01.050Z,91.40
2018-05-25T07:39:28.597Z,91.30
2018-05-25T07:41:56.201Z,91.30
2018-05-25T07:44:23.854Z,91.50
2018-05-25T07:46:51.351Z,90.50
2018-05-25T07:49:18.893Z,90.20
2018-05-25T07:51:46.437Z,90.10
2018-05-25T07:54:13.933Z,90.70
2018-05-25T07:56:41.451Z,90.40
2018-05-25T07:59:08.952Z,91.20
2018-05-25T08:01:36.472Z,91.50
2018-05-25T08:04:03.987Z,90.90
2018-05-25T08:06:31.491Z,91.20
2018-05-25T08:08:59.010Z,90.70
2018-05-25T08:11:26.522Z,90.70
2018-05-25T08:13:54.051Z,90.30
2018-05-25T08:16:22.003Z,88.30
2018-05-25T08:18:49.507Z,88.60
2018-05-25T08:21:17.036Z,86.10
2018-05-25T08:23:44.535Z,87.50
2018-05-25T08:26:12.060Z,87.30
2018-05-25T08:28:39.578Z,85.80
2018-05-25T08:31:07.767Z,85.70
2018-05-25T08:33:35.288Z,85.80
2018-05-25T08:36:03.697Z,85.50
2018-05-25T08:38:31.988Z,82.10
2018-05-25T08:40:59.480Z,82.10
2018-05-25T08:43:26.979Z,83.10
2018-05-25T08:45:55.372Z,82.20
2018-05-25T08:48:23.453Z,82.20
2018-05-25T08:50:50.952Z,82.00
2018-05-25T08:53:18.747Z,81.20
2018-05-25T08:55:46.308Z,82.80
2018-05-25T08:58:14.369Z,82.70
2018-05-25T09:00:43.242Z,81.10
2018-05-25T09:03:11.141Z,81.70
2018-05-25T09:05:39.112Z,78.80
2018-05-25T09:08:07.515Z,79.70
2018-05-25T09:10:35.015Z,81.80
2018-05-25T09:13:02.535Z,81.80
2018-05-25T09:15:30.500Z,81.70
2018-05-25T09:17:58.026Z,80.20
2018-05-25T09:20:26.383Z,78.00
2018-05-25T09:22:54.476Z,78.10
2018-05-25T09:25:22.171Z,74.50
2018-05-25T09:27:50.252Z,75.50
2018-05-25T09:30:17.767Z,75.10
2018-05-25T09:32:45.262Z,75.20
2018-05-25T09:35:12.759Z,75.60
2018-05-25T09:37:40.286Z,74.40
2018-05-25T09:40:08.340Z,74.90
2018-05-25T09:42:35.868Z,75.10
2018-05-25T09:45:03.364Z,74.30
2018-05-25T09:47:30.860Z,75.20
2018-05-25T09:49:58.379Z,75.20
2018-05-25T09:52:25.873Z,74.70
2018-05-25T09:54:53.463Z,76.50
2018-05-25T09:57:20.960Z,75.10
2018-05-25T09:59:48.474Z,76.20
2018-05-25T10:02:15.964Z,75.00
2018-05-25T10:04:43.460Z,75.10
2018-05-25T10:07:10.981Z,74.00
2018-05-25T10:09:38.476Z,72.60
2018-05-25T10:12:06.467Z,71.40
2018-05-25T10:14:34.436Z,71.40
2018-05-25T10:17:01.932Z,72.10
2018-05-25T10:19:29.459Z,70.50
2018-05-25T10:21:56.989Z,70.90
2018-05-25T10:24:24.511Z,69.30
2018-05-25T10:26:52.006Z,68.10
2018-05-25T10:29:19.503Z,66.80
2018-05-25T10:31:47.594Z,67.30
2018-05-25T10:34:15.112Z,66.20
2018-05-25T10:36:42.640Z,66.60
2018-05-25T10:39:10.147Z,66.70
2018-05-25T10:41:37.648Z,67.40
2018-05-25T10:44:05.168Z,66.90
2018-05-25T10:46:32.667Z,68.70
2018-05-25T10:49:00.183Z,69.30
2018-05-25T10:51:27.685Z,69.90
2018-05-25T10:53:55.180Z,68.80
2018-05-25T10:56:23.011Z,68.60
2018-05-25T10:58:50.507Z,68.50
2018-05-25T11:01:19.588Z,68.80
2018-05-25T11:03:48.564Z,67.70
2018-05-25T11:06:16.092Z,66.90
2018-05-25T11:08:43.628Z,65.50
2018-05-25T11:11:11.347Z,66.70
2018-05-25T11:13:38.871Z,66.10
2018-05-25T11:16:06.380Z,64.50
2018-05-25T11:18:34.353Z,63.50
2018-05-25T11:21:01.948Z,64.30
2018-05-25T11:26:20.093Z,63.90
2018-05-25T11:28:48.731Z,63.40
2018-05-25T11:31:16.801Z,64.00
2018-05-25T11:33:44.326Z,64.00
2018-05-25T11:36:11.839Z,63.60
2018-05-25T11:38:40.292Z,62.80
2018-05-25T11:41:07.797Z,61.30
2018-05-25T11:43:35.398Z,61.30
2018-05-25T11:46:02.940Z,61.20
2018-05-25T11:48:31.194Z,61.60
2018-05-25T11:50:58.798Z,56.40
